createdAt,value
2019-02-20T00:00:49.278Z,0.00
2019-02-20T00:01:49.254Z,0.00
2019-02-20T00:02:49.226Z,0.00
2019-02-20T00:03:49.207Z,0.00
2019-02-20T00:04:49.264Z,0.00
2019-02-20T00:05:49.195Z,0.00
2019-02-20T00:06:49.176Z,0.00
2019-02-20T00:07:49.170Z,0.00
2019-02-20T00:08:49.166Z,0.00
2019-02-20T00:09:50.184Z,0.00
2019-02-20T00:10:49.134Z,0.00
2019-02-20T00:11:49.120Z,0.00
2019-02-20T00:12:49.116Z,0.00
2019-02-20T00:13:49.100Z,0.00
2019-02-20T00:14:49.120Z,0.00
2019-02-20T00:15:50.100Z,0.00
2019-02-20T00:16:49.068Z,0.00
2019-02-20T00:17:49.069Z,0.00
2019-02-20T00:18:49.056Z,0.00
2019-02-20T00:19:49.038Z,0.00
2019-02-20T00:20:49.075Z,0.00
2019-02-20T00:21:49.020Z,0.00
2019-02-20T00:22:49.029Z,0.00
2019-02-20T00:23:49.006Z,0.00
2019-02-20T00:24:48.992Z,0.00
2019-02-20T00:25:48.975Z,0.00
2019-02-20T00:26:49.003Z,0.00
2019-02-20T00:27:48.965Z,0.00
2019-02-20T00:28:48.946Z,0.00
2019-02-20T00:29:48.938Z,0.00
2019-02-20T00:30:48.974Z,0.00
2019-02-20T00:31:48.910Z,0.00
2019-02-20T00:32:48.903Z,0.00
2019-02-20T00:33:48.889Z,0.00
2019-02-20T00:34:48.893Z,0.00
2019-02-20T00:35:48.862Z,0.00
2019-02-20T00:36:48.908Z,0.00
2019-02-20T00:37:48.853Z,0.00
2019-02-20T00:38:48.839Z,0.00
2019-02-20T00:39:48.825Z,0.00
2019-02-20T00:40:48.815Z,0.00
2019-02-20T00:41:48.821Z,0.00
2019-02-20T00:42:48.828Z,0.00
2019-02-20T00:43:48.786Z,0.00
2019-02-20T00:44:48.773Z,0.00
2019-02-20T00:45:48.770Z,0.00
2019-02-20T00:46:49.797Z,0.00
2019-02-20T00:47:48.768Z,0.00
2019-02-20T00:48:48.733Z,0.00
2019-02-20T00:49:48.728Z,0.00
2019-02-20T00:50:48.723Z,0.00
2019-02-20T00:51:48.697Z,0.00
2019-02-20T00:52:50.184Z,0.00
2019-02-20T00:53:48.675Z,0.00
2019-02-20T00:54:48.680Z,0.00
2019-02-20T00:55:48.653Z,0.00
2019-02-20T00:56:48.649Z,0.00
2019-02-20T00:57:48.635Z,0.00
2019-02-20T00:58:48.665Z,0.00
2019-02-20T00:59:48.650Z,0.00
2019-02-20T01:00:48.611Z,0.00
2019-02-20T01:01:48.598Z,0.00
2019-02-20T01:02:48.585Z,0.00
2019-02-20T01:03:48.567Z,0.00
2019-02-20T01:04:48.580Z,0.00
2019-02-20T01:05:48.585Z,0.00
2019-02-20T01:06:48.542Z,0.00
2019-02-20T01:07:48.528Z,0.00
2019-02-20T01:08:48.519Z,0.00
2019-02-20T01:09:48.514Z,0.00
2019-02-20T01:10:48.505Z,0.00
2019-02-20T01:11:48.522Z,0.00
2019-02-20T01:12:48.490Z,0.00
2019-02-20T01:13:48.472Z,0.00
2019-02-20T01:14:48.485Z,0.00
2019-02-20T01:15:48.444Z,0.00
2019-02-20T01:16:48.433Z,0.00
2019-02-20T01:17:48.482Z,0.00
2019-02-20T01:18:48.415Z,0.00
2019-02-20T01:19:48.416Z,0.00
2019-02-20T01:20:48.399Z,0.00
2019-02-20T01:21:48.397Z,0.00
2019-02-20T01:22:48.372Z,0.00
2019-02-20T01:23:48.402Z,0.00
2019-02-20T01:24:48.355Z,0.00
2019-02-20T01:25:48.377Z,0.00
2019-02-20T01:26:48.332Z,0.00
2019-02-20T01:27:48.322Z,0.00
2019-02-20T01:28:48.368Z,0.00
2019-02-20T01:29:48.315Z,0.00
2019-02-20T01:30:48.293Z,0.00
2019-02-20T01:31:48.280Z,0.00
2019-02-20T01:32:48.267Z,0.00
2019-02-20T01:33:48.279Z,0.00
2019-02-20T01:34:48.281Z,0.00
2019-02-20T01:35:48.285Z,0.00
2019-02-20T01:36:48.227Z,0.00
2019-02-20T01:37:48.218Z,0.00
2019-02-20T01:38:48.202Z,0.00
2019-02-20T01:39:49.529Z,0.00
2019-02-20T01:40:48.228Z,0.00
2019-02-20T01:41:48.175Z,0.00
2019-02-20T01:42:48.159Z,0.00
2019-02-20T01:43:48.170Z,0.00
2019-02-20T01:44:48.149Z,0.00
2019-02-20T01:45:48.129Z,0.00
2019-02-20T01:46:48.162Z,0.00
2019-02-20T01:47:48.133Z,0.00
2019-02-20T01:48:48.114Z,0.00
2019-02-20T01:49:48.087Z,0.00
2019-02-20T01:50:48.079Z,0.00
2019-02-20T01:51:48.066Z,0.00
2019-02-20T01:52:48.104Z,0.00
2019-02-20T01:53:48.041Z,0.00
2019-02-20T01:54:48.040Z,0.00
2019-02-20T01:55:48.037Z,0.00
2019-02-20T01:56:48.024Z,0.00
2019-02-20T01:57:48.011Z,0.00
2019-02-20T01:58:48.042Z,0.00
2019-02-20T01:59:47.983Z,0.00
2019-02-20T02:00:47.990Z,0.00
2019-02-20T02:01:47.968Z,0.00
2019-02-20T02:02:47.951Z,0.00
2019-02-20T02:03:47.958Z,0.00
2019-02-20T02:04:47.971Z,0.00
2019-02-20T02:05:47.928Z,0.00
2019-02-20T02:06:47.911Z,0.00
2019-02-20T02:07:47.896Z,0.00
2019-02-20T02:08:47.907Z,0.00
2019-02-20T02:09:47.914Z,0.00
2019-02-20T02:10:47.876Z,0.00
2019-02-20T02:11:47.854Z,0.00
2019-02-20T02:12:47.845Z,0.00
2019-02-20T02:13:47.842Z,0.00
2019-02-20T02:14:47.825Z,0.00
2019-02-20T02:15:47.849Z,0.00
2019-02-20T02:16:47.818Z,0.00
2019-02-20T02:17:47.791Z,0.00
2019-02-20T02:18:47.786Z,0.00
2019-02-20T02:19:47.768Z,0.00
2019-02-20T02:20:47.778Z,0.00
2019-02-20T02:21:47.782Z,0.00
2019-02-20T02:22:47.734Z,0.00
2019-02-20T02:23:47.793Z,0.00
2019-02-20T02:24:47.717Z,0.00
2019-02-20T02:25:47.750Z,0.00
2019-02-20T02:26:47.716Z,0.00
2019-02-20T02:27:47.682Z,0.00
2019-02-20T02:28:47.676Z,0.00
2019-02-20T02:29:47.662Z,0.00
2019-02-20T02:30:47.658Z,0.00
2019-02-20T02:31:47.698Z,0.00
2019-02-20T02:32:47.634Z,0.00
2019-02-20T02:33:47.631Z,0.00
2019-02-20T02:34:47.612Z,0.00
2019-02-20T02:35:47.606Z,0.00
2019-02-20T02:36:47.589Z,0.00
2019-02-20T02:37:47.642Z,0.00
2019-02-20T02:38:47.570Z,0.00
2019-02-20T02:39:47.558Z,0.00
2019-02-20T02:40:47.579Z,0.00
2019-02-20T02:41:47.541Z,0.00
2019-02-20T02:42:47.524Z,0.00
2019-02-20T02:43:47.575Z,0.00
2019-02-20T02:44:47.509Z,0.00
2019-02-20T02:45:47.498Z,0.00
2019-02-20T02:46:47.483Z,0.00
2019-02-20T02:47:47.487Z,0.00
2019-02-20T02:48:47.467Z,0.00
2019-02-20T02:49:47.497Z,0.00
2019-02-20T02:50:47.461Z,0.00
2019-02-20T02:51:47.436Z,0.00
2019-02-20T02:52:47.426Z,0.00
2019-02-20T02:53:47.428Z,0.00
2019-02-20T02:54:47.399Z,0.00
2019-02-20T02:55:47.447Z,0.00
2019-02-20T02:56:47.380Z,0.00
2019-02-20T02:57:47.364Z,0.00
2019-02-20T02:58:47.372Z,0.00
2019-02-20T02:59:47.345Z,0.00
2019-02-20T03:00:47.333Z,0.00
2019-02-20T03:01:47.383Z,0.00
2019-02-20T03:02:47.310Z,0.00
2019-02-20T03:03:47.305Z,0.00
2019-02-20T03:04:47.294Z,0.00
2019-02-20T03:05:47.319Z,0.00
2019-02-20T03:06:47.299Z,0.00
2019-02-20T03:07:47.258Z,0.00
2019-02-20T03:08:47.264Z,0.00
2019-02-20T03:09:47.239Z,0.00
2019-02-20T03:10:47.229Z,0.00
2019-02-20T03:11:47.250Z,0.00
2019-02-20T03:12:47.206Z,0.00
2019-02-20T03:13:47.216Z,0.00
2019-02-20T03:14:47.200Z,0.00
2019-02-20T03:15:47.175Z,0.00
2019-02-20T03:16:47.203Z,0.00
2019-02-20T03:17:47.159Z,0.00
2019-02-20T03:18:47.148Z,0.00
2019-02-20T03:19:47.134Z,0.00
2019-02-20T03:20:47.146Z,0.00
2019-02-20T03:21:47.114Z,0.00
2019-02-20T03:22:47.147Z,0.00
2019-02-20T03:23:47.133Z,0.00
2019-02-20T03:24:47.080Z,0.00
2019-02-20T03:25:47.072Z,0.00
2019-02-20T03:26:47.089Z,0.00
2019-02-20T03:27:47.061Z,0.00
2019-02-20T03:28:47.045Z,0.00
2019-02-20T03:29:47.073Z,0.00
2019-02-20T03:30:47.025Z,0.00
2019-02-20T03:31:47.024Z,0.00
2019-02-20T03:32:47.005Z,0.00
2019-02-20T03:33:46.993Z,0.00
2019-02-20T03:34:46.980Z,0.00
2019-02-20T03:35:47.041Z,0.00
2019-02-20T03:36:46.955Z,0.00
2019-02-20T03:37:46.961Z,0.00
2019-02-20T03:38:46.953Z,0.00
2019-02-20T03:39:46.926Z,0.00
2019-02-20T03:40:46.915Z,0.00
2019-02-20T03:41:48.944Z,0.00
2019-02-20T03:42:46.895Z,0.00
2019-02-20T03:43:46.886Z,0.00
2019-02-20T03:44:46.893Z,0.00
2019-02-20T03:45:46.909Z,0.00
2019-02-20T03:46:46.861Z,0.00
2019-02-20T03:47:46.868Z,0.00
2019-02-20T03:48:46.833Z,0.00
2019-02-20T03:49:46.828Z,0.00
2019-02-20T03:50:46.817Z,0.00
2019-02-20T03:51:46.839Z,0.00
2019-02-20T03:52:46.793Z,0.00
2019-02-20T03:53:51.625Z,0.00
2019-02-20T03:54:47.781Z,0.00
2019-02-20T03:55:46.794Z,0.00
2019-02-20T03:56:46.748Z,0.00
2019-02-20T03:57:46.782Z,0.00
2019-02-20T03:58:46.740Z,0.00
2019-02-20T03:59:46.715Z,0.00
2019-02-20T04:00:46.752Z,0.00
2019-02-20T04:01:46.723Z,0.00
2019-02-20T04:02:46.731Z,0.00
2019-02-20T04:03:46.677Z,0.00
2019-02-20T04:04:46.670Z,0.00
2019-02-20T04:05:46.657Z,0.00
2019-02-20T04:06:46.663Z,0.00
2019-02-20T04:07:46.636Z,0.00
2019-02-20T04:08:46.670Z,0.00
2019-02-20T04:09:46.610Z,0.00
2019-02-20T04:10:46.603Z,0.00
2019-02-20T04:11:46.592Z,0.00
2019-02-20T04:12:46.583Z,0.00
2019-02-20T04:13:46.590Z,0.00
2019-02-20T04:14:46.596Z,0.00
2019-02-20T04:15:46.551Z,0.00
2019-02-20T04:16:46.539Z,0.00
2019-02-20T04:17:46.530Z,0.00
2019-02-20T04:18:46.523Z,0.00
2019-02-20T04:19:46.540Z,0.00
2019-02-20T04:20:46.559Z,0.00
2019-02-20T04:21:46.486Z,0.00
2019-02-20T04:22:46.477Z,0.00
2019-02-20T04:23:46.467Z,0.00
2019-02-20T04:24:46.459Z,0.00
2019-02-20T04:25:46.458Z,0.00
2019-02-20T04:26:46.485Z,0.00
2019-02-20T04:27:46.425Z,0.00
2019-02-20T04:28:46.475Z,0.00
2019-02-20T04:29:46.418Z,0.00
2019-02-20T04:30:46.394Z,0.00
2019-02-20T04:31:46.382Z,0.00
2019-02-20T04:32:46.427Z,0.00
2019-02-20T04:33:46.380Z,0.00
2019-02-20T04:34:46.355Z,0.00
2019-02-20T04:35:46.453Z,0.00
2019-02-20T04:36:46.328Z,0.00
2019-02-20T04:37:46.349Z,0.00
2019-02-20T04:38:46.337Z,0.00
2019-02-20T04:39:46.299Z,0.00
2019-02-20T04:40:46.330Z,0.00
2019-02-20T04:41:46.294Z,0.00
2019-02-20T04:42:46.274Z,0.00
2019-02-20T04:43:46.286Z,0.00
2019-02-20T04:44:46.247Z,0.00
2019-02-20T04:45:46.245Z,0.00
2019-02-20T04:46:46.311Z,0.00
2019-02-20T04:47:46.213Z,0.00
2019-02-20T04:48:46.203Z,0.00
2019-02-20T04:49:46.199Z,0.00
2019-02-20T04:50:46.187Z,0.00
2019-02-20T04:51:46.196Z,0.00
2019-02-20T04:52:46.214Z,0.00
2019-02-20T04:53:46.153Z,0.00
2019-02-20T04:54:46.150Z,0.00
2019-02-20T04:55:46.130Z,0.00
2019-02-20T04:56:46.120Z,0.00
2019-02-20T04:57:46.140Z,0.00
2019-02-20T04:58:46.143Z,0.00
2019-02-20T04:59:46.089Z,0.00
2019-02-20T05:00:46.114Z,0.00
2019-02-20T05:01:46.067Z,0.00
2019-02-20T05:02:46.063Z,0.00
2019-02-20T05:03:46.108Z,0.00
2019-02-20T05:04:46.038Z,0.00
2019-02-20T05:05:46.032Z,0.00
2019-02-20T05:06:46.023Z,0.00
2019-02-20T05:07:46.002Z,0.00
2019-02-20T05:08:46.040Z,0.00
2019-02-20T05:09:46.026Z,0.00
2019-02-20T05:10:45.982Z,0.00
2019-02-20T05:11:45.976Z,0.00
2019-02-20T05:12:45.959Z,0.00
2019-02-20T05:13:45.951Z,0.00
2019-02-20T05:14:45.968Z,0.00
2019-02-20T05:15:45.936Z,0.00
2019-02-20T05:16:45.918Z,0.00
2019-02-20T05:17:46.026Z,0.00
2019-02-20T05:18:45.896Z,0.00
2019-02-20T05:19:45.926Z,0.00
2019-02-20T05:20:45.883Z,0.00
2019-02-20T05:21:45.860Z,0.00
2019-02-20T05:22:45.844Z,0.00
2019-02-20T05:23:45.854Z,0.00
2019-02-20T05:24:45.844Z,0.00
2019-02-20T05:25:45.855Z,0.00
2019-02-20T05:26:45.814Z,0.00
2019-02-20T05:27:45.798Z,0.00
2019-02-20T05:28:45.787Z,0.00
2019-02-20T05:29:45.798Z,0.00
2019-02-20T05:30:45.801Z,0.00
2019-02-20T05:31:45.803Z,0.00
2019-02-20T05:32:45.745Z,0.00
2019-02-20T05:33:45.734Z,0.00
2019-02-20T05:34:45.790Z,0.00
2019-02-20T05:35:45.740Z,0.00
2019-02-20T05:36:45.705Z,0.00
2019-02-20T05:37:45.838Z,0.00
2019-02-20T05:38:45.695Z,0.00
2019-02-20T05:39:45.694Z,0.00
2019-02-20T05:40:45.701Z,0.00
2019-02-20T05:41:45.722Z,0.00
2019-02-20T05:42:45.771Z,0.00
2019-02-20T05:43:45.635Z,4.00
2019-02-20T05:44:45.622Z,4.00
2019-02-20T05:45:45.675Z,0.00
2019-02-20T05:46:45.651Z,4.00
2019-02-20T05:47:45.593Z,4.00
2019-02-20T05:48:45.589Z,4.00
2019-02-20T05:49:45.589Z,4.00
2019-02-20T05:50:45.566Z,8.00
2019-02-20T05:51:45.541Z,8.00
2019-02-20T05:52:45.638Z,12.00
2019-02-20T05:53:45.540Z,8.00
2019-02-20T05:54:45.514Z,16.00
2019-02-20T05:55:45.531Z,16.00
2019-02-20T05:56:45.494Z,20.00
2019-02-20T05:57:45.490Z,24.00
2019-02-20T05:58:45.556Z,28.00
2019-02-20T05:59:45.460Z,32.00
2019-02-20T06:00:45.475Z,44.00
2019-02-20T06:01:45.453Z,48.00
2019-02-20T06:02:45.455Z,60.00
2019-02-20T06:03:45.448Z,72.00
2019-02-20T06:04:45.463Z,88.00
2019-02-20T06:05:45.413Z,104.00
2019-02-20T06:06:45.396Z,128.00
2019-02-20T06:07:45.611Z,148.00
2019-02-20T06:08:45.389Z,168.00
2019-02-20T06:09:45.383Z,192.00
2019-02-20T06:10:45.346Z,224.00
2019-02-20T06:11:45.511Z,252.00
2019-02-20T06:12:45.325Z,284.00
2019-02-20T06:13:45.359Z,316.00
2019-02-20T06:14:45.307Z,348.00
2019-02-20T06:15:45.293Z,380.00
2019-02-20T06:16:45.283Z,416.00
2019-02-20T06:17:45.284Z,452.00
2019-02-20T06:18:45.297Z,492.00
2019-02-20T06:19:45.292Z,540.00
2019-02-20T06:20:45.260Z,596.00
2019-02-20T06:21:45.230Z,660.00
2019-02-20T06:22:45.215Z,724.00
2019-02-20T06:23:45.284Z,800.00
2019-02-20T06:24:45.197Z,880.00
2019-02-20T06:25:45.202Z,964.00
2019-02-20T06:26:45.200Z,1056.00
2019-02-20T06:27:45.175Z,1144.00
2019-02-20T06:28:45.169Z,1224.00
2019-02-20T06:29:45.206Z,1308.00
2019-02-20T06:30:45.330Z,1396.00
2019-02-20T06:31:45.130Z,1488.00
2019-02-20T06:32:45.118Z,1576.00
2019-02-20T06:33:45.113Z,1664.00
2019-02-20T06:34:45.128Z,1756.00
2019-02-20T06:35:45.123Z,1848.00
2019-02-20T06:36:45.079Z,1948.00
2019-02-20T06:37:45.094Z,2056.00
2019-02-20T06:38:45.058Z,2168.00
2019-02-20T06:39:45.056Z,2276.00
2019-02-20T06:40:45.096Z,2392.00
2019-02-20T06:41:45.027Z,2512.00
2019-02-20T06:42:45.007Z,2632.00
2019-02-20T06:43:45.021Z,2756.00
2019-02-20T06:44:44.992Z,2876.00
2019-02-20T06:45:44.980Z,3008.00
2019-02-20T06:46:45.029Z,3148.00
2019-02-20T06:47:44.964Z,3308.00
2019-02-20T06:48:44.950Z,3456.00
2019-02-20T06:49:44.952Z,3600.00
2019-02-20T06:50:44.937Z,3748.00
2019-02-20T06:51:44.918Z,3888.00
2019-02-20T06:52:44.959Z,4024.00
2019-02-20T06:53:44.907Z,4152.00
2019-02-20T06:54:53.526Z,4280.00
2019-02-20T06:55:46.003Z,4408.00
2019-02-20T06:56:44.889Z,4544.00
2019-02-20T06:57:44.859Z,4668.00
2019-02-20T06:58:44.889Z,4796.00
2019-02-20T06:59:44.835Z,4924.00
2019-02-20T07:00:44.811Z,5076.00
2019-02-20T07:01:44.801Z,5236.00
2019-02-20T07:02:44.818Z,5396.00
2019-02-20T07:03:44.778Z,5556.00
2019-02-20T07:04:44.831Z,5732.00
2019-02-20T07:05:44.756Z,5904.00
2019-02-20T07:06:44.746Z,6080.00
2019-02-20T07:07:44.742Z,6276.00
2019-02-20T07:08:44.732Z,6480.00
2019-02-20T07:09:44.730Z,6708.00
2019-02-20T07:10:44.738Z,6944.00
2019-02-20T07:11:44.716Z,7200.00
2019-02-20T07:12:44.730Z,7456.00
2019-02-20T07:13:44.673Z,7740.00
2019-02-20T07:14:44.678Z,8096.00
2019-02-20T07:15:44.647Z,8460.00
2019-02-20T07:16:44.689Z,8808.00
2019-02-20T07:17:44.623Z,9144.00
2019-02-20T07:18:44.621Z,9448.00
2019-02-20T07:19:44.621Z,9720.00
2019-02-20T07:20:44.608Z,9928.00
2019-02-20T07:21:44.580Z,10052.00
2019-02-20T07:22:44.618Z,10092.00
2019-02-20T07:23:44.579Z,10060.00
2019-02-20T07:24:44.551Z,10036.00
2019-02-20T07:25:44.535Z,10056.00
2019-02-20T07:26:44.545Z,10068.00
2019-02-20T07:27:44.520Z,10052.00
2019-02-20T07:28:44.543Z,10008.00
2019-02-20T07:29:44.494Z,9980.00
2019-02-20T07:30:44.484Z,9936.00
2019-02-20T07:31:44.470Z,9884.00
2019-02-20T07:32:44.474Z,9940.00
2019-02-20T07:33:44.449Z,10092.00
2019-02-20T07:34:44.475Z,10184.00
2019-02-20T07:35:44.428Z,10320.00
2019-02-20T07:36:44.424Z,10476.00
2019-02-20T07:37:44.407Z,10604.00
2019-02-20T07:38:44.396Z,10732.00
2019-02-20T07:39:44.405Z,10932.00
2019-02-20T07:40:44.411Z,11124.00
2019-02-20T07:41:44.363Z,11296.00
2019-02-20T07:42:44.356Z,11412.00
2019-02-20T07:43:44.393Z,11460.00
2019-02-20T07:44:44.333Z,11444.00
2019-02-20T07:45:44.328Z,11480.00
2019-02-20T07:46:44.322Z,11476.00
2019-02-20T07:47:44.301Z,11428.00
2019-02-20T07:48:44.301Z,11356.00
2019-02-20T07:49:44.319Z,11316.00
2019-02-20T07:50:44.265Z,11312.00
2019-02-20T07:51:44.283Z,11336.00
2019-02-20T07:52:44.258Z,11440.00
2019-02-20T07:53:44.238Z,11448.00
2019-02-20T07:54:44.237Z,11420.00
2019-02-20T07:55:44.274Z,11544.00
2019-02-20T07:56:44.218Z,11764.00
2019-02-20T07:57:44.198Z,11996.00
2019-02-20T07:58:44.194Z,12544.00
2019-02-20T07:59:44.166Z,13044.00
2019-02-20T08:00:44.161Z,13600.00
2019-02-20T08:01:44.186Z,15188.00
2019-02-20T08:02:44.161Z,18944.00
2019-02-20T08:03:44.125Z,23264.00
2019-02-20T08:04:44.115Z,33184.00
2019-02-20T08:05:44.117Z,42048.00
2019-02-20T08:06:44.102Z,42880.00
2019-02-20T08:07:44.124Z,45568.00
2019-02-20T08:08:44.087Z,52384.00
2019-02-20T08:09:44.064Z,57632.00
2019-02-20T08:10:44.049Z,57504.00
2019-02-20T08:11:44.044Z,56480.00
2019-02-20T08:12:44.035Z,56768.00
2019-02-20T08:13:44.076Z,58784.00
2019-02-20T08:14:44.012Z,60640.00
2019-02-20T08:15:44.064Z,59072.00
2019-02-20T08:16:52.018Z,54720.00
2019-02-20T08:17:44.980Z,52224.00
2019-02-20T08:18:43.963Z,56032.00
2019-02-20T08:19:43.962Z,61792.00
2019-02-20T08:20:43.990Z,66528.00
2019-02-20T08:21:43.962Z,64224.00
2019-02-20T08:22:43.946Z,59392.00
2019-02-20T08:23:43.921Z,56512.00
2019-02-20T08:24:43.913Z,58464.00
2019-02-20T08:25:43.891Z,59680.00
2019-02-20T08:26:43.945Z,60128.00
2019-02-20T08:27:43.876Z,60320.00
2019-02-20T08:28:43.860Z,61216.00
2019-02-20T08:29:43.884Z,61280.00
2019-02-20T08:30:43.849Z,60320.00
2019-02-20T08:31:43.865Z,59936.00
2019-02-20T08:32:50.572Z,61376.00
2019-02-20T08:33:43.825Z,61376.00
2019-02-20T08:34:43.818Z,62656.00
2019-02-20T08:35:43.785Z,65216.00
2019-02-20T08:36:43.803Z,66400.00
2019-02-20T08:37:43.816Z,68608.00
2019-02-20T08:38:43.753Z,67552.00
2019-02-20T08:39:43.763Z,67904.00
2019-02-20T08:40:43.737Z,70080.00
2019-02-20T08:41:43.717Z,70368.00
2019-02-20T08:42:43.741Z,73088.00
2019-02-20T08:43:43.824Z,67200.00
2019-02-20T08:44:43.683Z,67104.00
2019-02-20T08:45:43.687Z,62112.00
2019-02-20T08:46:43.674Z,70816.00
2019-02-20T08:47:43.682Z,70272.00
2019-02-20T08:48:43.655Z,69952.00
2019-02-20T08:49:43.707Z,70496.00
2019-02-20T08:50:43.617Z,72640.00
2019-02-20T08:51:43.625Z,75072.00
2019-02-20T08:52:43.598Z,73728.00
2019-02-20T08:53:43.596Z,72480.00
2019-02-20T08:54:43.582Z,74496.00
2019-02-20T08:55:43.619Z,76960.00
2019-02-20T08:56:44.075Z,79776.00
2019-02-20T08:57:43.568Z,79136.00
2019-02-20T08:58:43.535Z,77536.00
2019-02-20T08:59:43.552Z,78368.00
2019-02-20T09:00:43.523Z,77728.00
2019-02-20T09:01:43.565Z,75488.00
2019-02-20T09:02:43.497Z,74880.00
2019-02-20T09:03:45.101Z,72704.00
2019-02-20T09:04:43.498Z,74240.00
2019-02-20T09:05:44.066Z,74688.00
2019-02-20T09:07:05.060Z,76928.00
2019-02-20T09:07:43.425Z,78688.00
2019-02-20T09:08:43.424Z,77952.00
2019-02-20T09:09:43.419Z,77376.00
2019-02-20T09:10:44.450Z,77760.00
2019-02-20T09:11:45.627Z,77728.00
2019-02-20T09:12:43.399Z,77984.00
2019-02-20T09:13:43.365Z,75200.00
2019-02-20T09:14:43.365Z,77344.00
2019-02-20T09:15:43.340Z,75360.00
2019-02-20T09:16:43.475Z,75200.00
2019-02-20T09:17:43.322Z,76928.00
2019-02-20T09:18:46.050Z,79712.00
2019-02-20T09:19:43.307Z,78784.00
2019-02-20T09:20:43.298Z,76032.00
2019-02-20T09:21:46.068Z,75808.00
2019-02-20T09:22:43.327Z,72576.00
2019-02-20T09:23:43.284Z,69024.00
2019-02-20T09:24:43.275Z,70816.00
2019-02-20T09:25:43.575Z,70560.00
2019-02-20T09:26:43.294Z,70688.00
2019-02-20T09:27:45.088Z,72448.00
2019-02-20T09:31:10.811Z,77312.00
2019-02-20T09:33:16.559Z,74496.00
2019-02-20T09:34:18.575Z,76576.00
2019-02-20T09:35:17.586Z,72320.00
2019-02-20T09:37:30.388Z,76224.00
2019-02-20T09:38:53.318Z,77920.00
2019-02-20T09:39:29.409Z,63232.00
2019-02-20T09:40:31.326Z,74464.00
2019-02-20T09:41:33.360Z,79264.00
2019-02-20T09:42:32.333Z,81152.00
2019-02-20T09:44:39.319Z,83008.00
2019-02-20T09:45:42.102Z,84576.00
2019-02-20T09:46:39.544Z,85280.00
2019-02-20T09:47:49.362Z,87296.00
2019-02-20T09:48:39.286Z,86656.00
2019-02-20T09:49:50.661Z,90912.00
2019-02-20T09:50:38.518Z,90496.00
2019-02-20T09:51:38.855Z,89760.00
2019-02-20T09:52:39.316Z,92128.00
2019-02-20T09:54:00.510Z,95008.00
2019-02-20T09:54:39.304Z,94848.00
2019-02-20T09:55:39.295Z,99296.00
2019-02-20T09:56:38.469Z,98144.00
2019-02-20T09:57:38.487Z,95680.00
2019-02-20T09:58:38.415Z,92832.00
2019-02-20T09:59:38.411Z,82400.00
2019-02-20T10:00:39.274Z,79360.00
2019-02-20T10:01:39.282Z,82144.00
2019-02-20T10:02:39.315Z,86336.00
2019-02-20T10:03:38.360Z,85120.00
2019-02-20T10:04:38.350Z,86400.00
2019-02-20T10:05:38.335Z,86208.00
2019-02-20T10:06:38.341Z,87840.00
2019-02-20T10:07:38.853Z,91968.00
2019-02-20T10:08:38.306Z,95168.00
2019-02-20T10:09:40.279Z,95712.00
2019-02-20T10:10:38.303Z,97280.00
2019-02-20T10:11:38.784Z,95200.00
2019-02-20T10:12:38.345Z,89184.00
2019-02-20T10:13:38.298Z,88448.00
2019-02-20T10:14:40.280Z,87520.00
2019-02-20T10:15:38.229Z,86240.00
2019-02-20T10:16:38.232Z,88320.00
2019-02-20T10:17:38.347Z,94240.00
2019-02-20T10:18:38.238Z,98400.00
2019-02-20T10:19:38.255Z,101376.00
2019-02-20T10:20:38.276Z,100704.00
2019-02-20T10:21:38.163Z,100448.00
2019-02-20T10:22:38.150Z,97760.00
2019-02-20T10:23:38.320Z,97088.00
2019-02-20T10:24:38.155Z,95808.00
2019-02-20T10:25:39.773Z,97824.00
2019-02-20T10:26:38.112Z,99712.00
2019-02-20T10:27:38.099Z,96704.00
2019-02-20T10:28:38.783Z,94752.00
2019-02-20T10:29:38.086Z,94240.00
2019-02-20T10:30:38.070Z,91776.00
2019-02-20T10:31:38.093Z,91264.00
2019-02-20T10:32:38.043Z,88416.00
2019-02-20T10:33:38.177Z,87904.00
2019-02-20T10:34:38.027Z,87168.00
2019-02-20T10:35:38.011Z,89760.00
2019-02-20T10:36:37.993Z,89536.00
2019-02-20T10:37:38.013Z,89184.00
2019-02-20T10:38:38.043Z,88928.00
2019-02-20T10:39:37.969Z,89568.00
2019-02-20T10:40:38.019Z,87904.00
2019-02-20T10:41:37.944Z,90944.00
2019-02-20T10:42:37.939Z,89088.00
2019-02-20T10:43:37.919Z,87712.00
2019-02-20T10:44:37.973Z,91264.00
2019-02-20T10:45:37.897Z,92800.00
2019-02-20T10:46:37.906Z,92992.00
2019-02-20T10:47:37.883Z,94624.00
2019-02-20T10:48:37.862Z,93056.00
2019-02-20T10:49:37.940Z,91200.00
2019-02-20T10:50:37.848Z,93792.00
2019-02-20T10:51:37.831Z,93952.00
2019-02-20T10:52:37.881Z,89280.00
2019-02-20T10:53:37.812Z,87488.00
2019-02-20T10:54:37.795Z,86144.00
2019-02-20T10:55:37.808Z,88544.00
2019-02-20T10:56:37.786Z,92224.00
2019-02-20T10:57:37.832Z,94912.00
2019-02-20T10:58:37.767Z,94528.00
2019-02-20T10:59:37.736Z,94560.00
2019-02-20T11:00:37.776Z,92992.00
2019-02-20T11:01:37.737Z,92416.00
2019-02-20T11:02:37.769Z,91392.00
2019-02-20T11:03:37.707Z,90944.00
2019-02-20T11:04:37.682Z,88448.00
2019-02-20T11:05:37.678Z,85344.00
2019-02-20T11:06:37.668Z,83424.00
2019-02-20T11:07:37.711Z,81952.00
2019-02-20T11:08:37.652Z,81568.00
2019-02-20T11:09:37.630Z,80928.00
2019-02-20T11:10:37.616Z,80256.00
2019-02-20T11:11:37.603Z,80864.00
2019-02-20T11:12:37.661Z,81536.00
2019-02-20T11:13:37.581Z,84736.00
2019-02-20T11:14:37.904Z,90048.00
2019-02-20T11:15:37.578Z,89664.00
2019-02-20T11:16:37.551Z,89344.00
2019-02-20T11:17:37.633Z,93664.00
2019-02-20T11:18:37.526Z,94880.00
2019-02-20T11:19:58.670Z,95744.00
2019-02-20T11:20:38.240Z,93696.00
2019-02-20T11:21:41.619Z,90784.00
2019-02-20T11:22:37.533Z,92192.00
2019-02-20T11:23:37.475Z,89248.00
2019-02-20T11:24:37.467Z,90016.00
2019-02-20T11:25:37.460Z,89728.00
2019-02-20T11:26:46.247Z,87456.00
2019-02-20T11:27:39.548Z,86368.00
2019-02-20T11:28:37.417Z,86848.00
2019-02-20T11:29:37.415Z,90624.00
2019-02-20T11:30:37.394Z,94688.00
2019-02-20T11:31:37.380Z,92192.00
2019-02-20T11:32:37.387Z,89024.00
2019-02-20T11:33:37.425Z,86720.00
2019-02-20T11:34:37.350Z,87456.00
2019-02-20T11:35:37.343Z,91136.00
2019-02-20T11:36:37.324Z,92544.00
2019-02-20T11:37:37.316Z,93376.00
2019-02-20T11:38:37.373Z,94976.00
2019-02-20T11:39:37.998Z,96960.00
2019-02-20T11:40:37.279Z,97280.00
2019-02-20T11:41:37.271Z,98272.00
2019-02-20T11:42:37.310Z,98784.00
2019-02-20T11:43:37.251Z,96992.00
2019-02-20T11:44:37.263Z,94624.00
2019-02-20T11:45:37.261Z,94752.00
2019-02-20T11:46:37.217Z,92704.00
2019-02-20T11:47:37.250Z,97600.00
2019-02-20T11:48:37.194Z,98464.00
2019-02-20T11:49:37.199Z,100672.00
2019-02-20T11:50:37.220Z,101312.00
2019-02-20T11:51:37.164Z,98272.00
2019-02-20T11:52:38.613Z,97280.00
2019-02-20T11:53:37.554Z,91648.00
2019-02-20T11:54:37.135Z,88064.00
2019-02-20T11:55:37.118Z,86752.00
2019-02-20T11:56:37.163Z,84608.00
2019-02-20T11:57:37.338Z,89344.00
2019-02-20T11:58:37.082Z,91488.00
2019-02-20T11:59:37.072Z,90720.00
2019-02-20T12:00:37.063Z,89280.00
2019-02-20T12:01:37.146Z,87584.00
2019-02-20T12:02:37.599Z,85376.00
2019-02-20T12:03:37.030Z,85056.00
2019-02-20T12:04:37.028Z,90240.00
2019-02-20T12:05:37.014Z,92000.00
2019-02-20T12:06:37.069Z,95744.00
2019-02-20T12:07:37.004Z,97760.00
2019-02-20T12:08:37.097Z,94272.00
2019-02-20T12:09:36.985Z,93088.00
2019-02-20T12:10:37.011Z,94656.00
2019-02-20T12:11:37.005Z,91808.00
2019-02-20T12:12:36.933Z,90816.00
2019-02-20T12:13:36.969Z,88384.00
2019-02-20T12:14:36.925Z,89056.00
2019-02-20T12:15:36.899Z,91008.00
2019-02-20T12:16:37.017Z,87552.00
2019-02-20T12:17:36.972Z,84864.00
2019-02-20T12:18:37.052Z,82272.00
2019-02-20T12:19:36.871Z,83648.00
2019-02-20T12:20:36.903Z,87840.00
2019-02-20T12:21:36.834Z,91040.00
2019-02-20T12:22:36.822Z,94208.00
2019-02-20T12:23:37.097Z,92448.00
2019-02-20T12:24:36.802Z,88512.00
2019-02-20T12:25:36.906Z,81248.00
2019-02-20T12:26:36.775Z,76288.00
2019-02-20T12:27:36.824Z,77184.00
2019-02-20T12:28:37.843Z,82048.00
2019-02-20T12:29:36.743Z,89792.00
2019-02-20T12:30:38.031Z,89760.00
2019-02-20T12:31:36.737Z,85984.00
2019-02-20T12:32:36.713Z,82752.00
2019-02-20T12:33:36.703Z,80544.00
2019-02-20T12:34:36.774Z,80896.00
2019-02-20T12:35:36.685Z,80192.00